Time;durP1;ratioP1;P1;durP2;ratioP2;P2;SDS_P1;SDS_P2;PMS_P1;PMS_P2;Temp;Humidity;BMP_temperature;BMP_pressure;BME280_temperature;BME280_humidity;BME280_pressure;Samples;Min_cycle;Max_cycle;Signal;HPM_P1;HPM_P2
2021/10/19 04:21:45;;;;;;;33.78;15.27;;;17.40;93.30;;;;;;5063328;28;20431;-69
2021/10/19 04:24:11;;;;;;;32.72;14.95;;;17.20;93.80;;;;;;5046937;28;20037;-69
2021/10/19 04:26:37;;;;;;;33.00;15.70;;;17.10;94.00;;;;;;5031466;28;20056;-69
2021/10/19 04:29:04;;;;;;;26.77;14.05;;;17.10;94.00;;;;;;5046687;28;20083;-70
2021/10/19 04:31:31;;;;;;;33.28;13.80;;;17.10;94.00;;;;;;5038986;28;20017;-70
2021/10/19 04:33:59;;;;;;;33.97;14.43;;;17.10;93.90;;;;;;5043518;28;20480;-70
2021/10/19 04:36:26;;;;;;;34.20;16.88;;;17.10;93.80;;;;;;5043328;28;20025;-69
2021/10/19 04:38:51;;;;;;;32.95;16.35;;;17.10;93.70;;;;;;5031288;28;20148;-68
2021/10/19 04:41:17;;;;;;;33.95;16.27;;;17.10;93.60;;;;;;5046823;28;20037;-70
2021/10/19 04:43:43;;;;;;;26.38;11.52;;;17.10;93.60;;;;;;5045081;28;20025;-69
2021/10/19 04:46:10;;;;;;;32.08;14.23;;;17.10;93.50;;;;;;5037348;28;20033;-68
2021/10/19 04:48:36;;;;;;;29.67;15.98;;;17.00;93.40;;;;;;5042198;28;20036;-69
2021/10/19 04:51:02;;;;;;;36.58;16.50;;;17.00;93.40;;;;;;5039295;28;20025;-69
2021/10/19 04:53:29;;;;;;;27.00;14.60;;;17.00;93.40;;;;;;5045325;28;20496;-69
2021/10/19 04:55:54;;;;;;;27.63;14.95;;;17.00;93.40;;;;;;5044239;28;20025;-69
2021/10/19 04:58:20;;;;;;;31.58;15.30;;;17.00;93.30;;;;;;5039971;28;20083;-68
2021/10/19 05:00:47;;;;;;;30.85;16.48;;;17.10;93.20;;;;;;5049192;28;20033;-66
2021/10/19 05:03:15;;;;;;;27.55;14.57;;;17.10;93.10;;;;;;5047989;28;20037;-68
2021/10/19 05:05:41;;;;;;;31.15;15.35;;;17.10;93.00;;;;;;5034798;28;20532;-68
2021/10/19 05:08:07;;;;;;;27.75;14.90;;;17.20;92.90;;;;;;5045679;28;20071;-67
2021/10/19 05:10:33;;;;;;;31.58;16.80;;;17.20;92.80;;;;;;5035083;28;20029;-67
2021/10/19 05:12:58;;;;;;;30.63;15.95;;;17.20;92.70;;;;;;5043181;28;20076;-67
2021/10/19 05:15:25;;;;;;;25.73;16.10;;;17.20;92.60;;;;;;5048524;28;20073;-68
2021/10/19 05:17:51;;;;;;;27.20;14.20;;;17.20;92.60;;;;;;5043983;28;20111;-67
2021/10/19 05:20:16;;;;;;;27.30;16.05;;;17.20;92.60;;;;;;5046095;28;20524;-68
2021/10/19 05:22:42;;;;;;;22.70;12.00;;;17.20;92.60;;;;;;5032432;28;20401;-69
2021/10/19 05:25:10;;;;;;;29.83;16.25;;;17.20;92.50;;;;;;5036910;28;20083;-69
2021/10/19 05:27:35;;;;;;;23.80;13.65;;;17.20;92.50;;;;;;5040942;28;20041;-71
2021/10/19 05:30:02;;;;;;;25.95;15.02;;;17.20;92.50;;;;;;5033927;28;20075;-71
2021/10/19 05:32:28;;;;;;;26.10;14.18;;;17.20;92.50;;;;;;5030838;28;20128;-71
2021/10/19 05:34:54;;;;;;;23.70;14.35;;;17.20;92.40;;;;;;5028017;28;20556;-70
2021/10/19 05:37:19;;;;;;;22.88;13.30;;;17.20;92.40;;;;;;5028328;28;20030;-71
2021/10/19 05:39:45;;;;;;;30.40;15.90;;;17.20;92.40;;;;;;5024809;28;20113;-71
2021/10/19 05:42:13;;;;;;;28.73;16.25;;;17.20;92.30;;;;;;5015940;28;20038;-71
2021/10/19 05:44:40;;;;;;;23.65;14.60;;;17.20;92.30;;;;;;5014514;28;20029;-72
2021/10/19 05:47:06;;;;;;;27.15;17.58;;;17.20;92.30;;;;;;5017498;28;20026;-71
2021/10/19 05:49:32;;;;;;;24.90;13.25;;;17.20;92.20;;;;;;5026491;28;20116;-71
2021/10/19 05:51:58;;;;;;;23.13;13.93;;;17.20;92.20;;;;;;5024324;28;20105;-71
2021/10/19 05:54:24;;;;;;;27.10;14.82;;;17.20;92.20;;;;;;5018170;28;20362;-71
2021/10/19 05:56:54;;;;;;;31.08;16.98;;;17.20;92.20;;;;;;5013611;28;20029;-71
2021/10/19 05:59:21;;;;;;;25.77;12.73;;;17.10;92.20;;;;;;5029357;28;20026;-71
2021/10/19 06:01:47;;;;;;;28.15;16.00;;;17.10;92.30;;;;;;5017869;28;20030;-71
2021/10/19 06:04:15;;;;;;;21.55;12.75;;;17.10;92.40;;;;;;5017277;28;20030;-71
2021/10/19 06:06:51;;;;;;;24.35;15.45;;;17.00;92.40;;;;;;5017552;28;20515;-71
2021/10/19 06:09:16;;;;;;;22.20;12.85;;;17.00;92.50;;;;;;5024088;28;20017;-71
2021/10/19 06:11:42;;;;;;;25.05;14.15;;;17.10;92.50;;;;;;5014038;28;20045;-71
2021/10/19 06:14:08;;;;;;;22.58;14.60;;;17.10;92.50;;;;;;5017051;28;20033;-71
2021/10/19 06:16:33;;;;;;;22.45;12.40;;;17.10;92.50;;;;;;5017659;28;20030;-71
2021/10/19 06:18:59;;;;;;;25.52;14.25;;;17.10;92.50;;;;;;5017200;28;20018;-71
2021/10/19 06:21:25;;;;;;;21.85;12.38;;;17.10;92.40;;;;;;5016140;28;20181;-71
2021/10/19 06:23:51;;;;;;;26.10;16.52;;;17.10;92.40;;;;;;4996098;28;20021;-71
2021/10/19 06:26:17;;;;;;;17.70;11.98;;;17.20;92.40;;;;;;5017613;28;20033;-71
2021/10/19 06:28:42;;;;;;;29.38;16.27;;;17.20;92.40;;;;;;5016847;28;20061;-71
2021/10/19 06:31:08;;;;;;;27.98;18.00;;;17.10;92.40;;;;;;5018409;28;20026;-71
2021/10/19 06:33:36;;;;;;;26.70;18.58;;;17.20;92.40;;;;;;5016679;28;20065;-71
2021/10/19 06:36:03;;;;;;;30.90;19.10;;;17.20;92.30;;;;;;5013372;28;20040;-71
2021/10/19 06:38:29;;;;;;;38.83;25.33;;;17.20;92.30;;;;;;5036841;28;20507;-71
2021/10/19 06:40:55;;;;;;;34.63;23.33;;;17.20;92.30;;;;;;5017418;28;20050;-71
2021/10/19 06:43:20;;;;;;;33.92;21.67;;;17.30;92.30;;;;;;5015733;28;20014;-71
2021/10/19 06:45:46;;;;;;;36.63;24.83;;;17.30;92.20;;;;;;5016942;28;20041;-71
2021/10/19 06:48:12;;;;;;;39.70;26.50;;;17.30;92.20;;;;;;5014957;28;20100;-72
2021/10/19 06:50:38;;;;;;;39.08;26.10;;;17.30;92.20;;;;;;5020525;28;20068;-71
2021/10/19 06:53:04;;;;;;;33.42;22.27;;;17.30;92.20;;;;;;5016372;28;20022;-71
2021/10/19 06:55:30;;;;;;;43.22;25.58;;;17.30;92.10;;;;;;5028031;28;20037;-71
2021/10/19 06:57:57;;;;;;;40.05;25.40;;;17.30;92.00;;;;;;5028770;28;20071;-71
2021/10/19 07:00:23;;;;;;;35.35;19.88;;;17.40;92.00;;;;;;5027558;28;20045;-71
2021/10/19 07:02:49;;;;;;;36.22;20.83;;;17.40;92.00;;;;;;5022682;28;20435;-71
2021/10/19 07:05:15;;;;;;;36.75;22.90;;;17.40;91.80;;;;;;5015924;28;20038;-71
2021/10/19 07:07:42;;;;;;;39.47;25.23;;;17.40;91.80;;;;;;5016449;28;20034;-71
2021/10/19 07:10:13;;;;;;;30.17;19.10;;;17.40;92.20;;;;;;5023456;28;20024;-71
2021/10/19 07:12:39;;;;;;;29.05;18.75;;;17.50;91.70;;;;;;5025448;28;20033;-71
2021/10/19 07:15:07;;;;;;;34.72;20.77;;;17.50;91.50;;;;;;5028563;28;20474;-71
2021/10/19 07:17:33;;;;;;;34.97;21.98;;;17.50;91.50;;;;;;5013733;28;20444;-71
2021/10/19 07:19:59;;;;;;;30.40;20.70;;;17.50;91.40;;;;;;5016423;28;20043;-71
2021/10/19 07:22:28;;;;;;;32.80;22.08;;;17.60;91.30;;;;;;5019277;28;20025;-71
2021/10/19 07:24:55;;;;;;;30.60;20.10;;;17.60;91.10;;;;;;5016168;28;20037;-71
2021/10/19 07:27:23;;;;;;;30.08;19.30;;;17.70;90.90;;;;;;5016734;28;20021;-71
2021/10/19 07:29:49;;;;;;;27.10;18.42;;;17.70;90.70;;;;;;5011770;28;20034;-71
2021/10/19 07:32:15;;;;;;;31.98;19.85;;;17.80;90.50;;;;;;5015930;28;20378;-71
2021/10/19 07:34:43;;;;;;;30.27;19.27;;;17.80;90.50;;;;;;5025315;28;20071;-71
2021/10/19 07:37:09;;;;;;;30.70;19.70;;;17.80;90.40;;;;;;5021008;28;20035;-71
2021/10/19 07:39:35;;;;;;;27.92;19.33;;;17.80;90.40;;;;;;5015916;28;20022;-72
2021/10/19 07:42:01;;;;;;;27.17;16.55;;;17.80;90.40;;;;;;5012504;28;20032;-71
2021/10/19 07:44:26;;;;;;;26.40;17.48;;;17.90;90.30;;;;;;5013850;28;20026;-71
2021/10/19 07:46:52;;;;;;;27.35;17.25;;;17.90;90.10;;;;;;5016587;28;20076;-71
2021/10/19 07:49:19;;;;;;;23.90;15.65;;;17.90;89.90;;;;;;5015430;28;20436;-71
2021/10/19 07:51:47;;;;;;;30.77;19.27;;;18.00;89.50;;;;;;5023756;28;20133;-71
2021/10/19 07:54:13;;;;;;;27.98;18.10;;;18.10;89.40;;;;;;5013984;28;20030;-71
2021/10/19 07:56:39;;;;;;;26.75;19.10;;;18.20;88.50;;;;;;5025793;28;20026;-71
2021/10/19 07:59:05;;;;;;;28.40;17.90;;;18.20;88.50;;;;;;5026962;28;20148;-71
2021/10/19 08:01:33;;;;;;;26.02;16.95;;;18.20;88.60;;;;;;5017636;28;20390;-71
2021/10/19 08:03:59;;;;;;;30.98;21.13;;;18.10;88.50;;;;;;5015202;28;20030;-71
2021/10/19 08:06:27;;;;;;;30.27;19.40;;;18.10;88.80;;;;;;5015532;28;20447;-71
2021/10/19 08:08:53;;;;;;;27.35;19.33;;;18.20;88.60;;;;;;5010869;28;20025;-71
2021/10/19 08:11:19;;;;;;;32.65;20.50;;;18.40;88.00;;;;;;5015441;28;20482;-71
2021/10/19 08:13:44;;;;;;;30.38;18.10;;;18.40;87.00;;;;;;5016780;28;20284;-72
2021/10/19 08:16:10;;;;;;;22.77;15.68;;;18.40;86.70;;;;;;5017061;28;20033;-72
2021/10/19 08:18:36;;;;;;;25.98;19.00;;;18.90;85.20;;;;;;5015003;28;20049;-71
2021/10/19 08:21:02;;;;;;;21.85;17.27;;;19.90;83.60;;;;;;5019899;28;20054;-72
2021/10/19 08:23:30;;;;;;;20.90;17.13;;;21.60;77.70;;;;;;5013184;28;20485;-72
2021/10/19 08:25:55;;;;;;;16.92;12.82;;;23.10;71.30;;;;;;5025517;28;20061;-72
2021/10/19 08:28:24;;;;;;;15.93;12.85;;;24.30;65.00;;;;;;5018737;28;20131;-72
2021/10/19 08:30:53;;;;;;;14.43;12.43;;;25.20;60.70;;;;;;5015032;28;20033;-72
2021/10/19 08:33:19;;;;;;;12.13;10.70;;;26.10;58.10;;;;;;5012284;28;20026;-72
2021/10/19 08:35:45;;;;;;;15.85;10.85;;;26.80;55.50;;;;;;5026841;28;20037;-72
2021/10/19 08:38:13;;;;;;;13.07;10.48;;;27.30;54.40;;;;;;5015167;28;20366;-73
2021/10/19 08:40:40;;;;;;;10.05;7.45;;;27.50;52.90;;;;;;5014841;28;20419;-72
2021/10/19 08:43:06;;;;;;;13.18;9.18;;;27.30;51.90;;;;;;5015095;28;20026;-72
2021/10/19 08:45:32;;;;;;;10.15;8.25;;;26.50;52.30;;;;;;5014890;28;20095;-72
2021/10/19 08:48:02;;;;;;;12.25;10.15;;;26.20;52.20;;;;;;5011870;28;20037;-72
2021/10/19 08:50:29;;;;;;;12.05;10.10;;;26.30;52.60;;;;;;5023846;28;20048;-72
2021/10/19 08:52:55;;;;;;;10.90;8.43;;;26.80;51.30;;;;;;5027728;28;20048;-72
2021/10/19 08:55:22;;;;;;;13.15;8.82;;;28.10;50.00;;;;;;5019844;28;20549;-72
2021/10/19 08:57:48;;;;;;;14.68;12.13;;;29.10;47.70;;;;;;5025242;28;20025;-72
2021/10/19 09:00:15;;;;;;;12.75;10.90;;;29.80;45.40;;;;;;5026222;28;20138;-72
2021/10/19 09:02:48;;;;;;;9.50;8.32;;;30.50;44.10;;;;;;5017600;28;20072;-72
2021/10/19 09:05:18;;;;;;;9.82;7.32;;;30.80;42.40;;;;;;5014706;28;20737;-72
2021/10/19 09:07:54;;;;;;;11.10;7.80;;;31.00;41.60;;;;;;5017161;28;20022;-72
2021/10/19 09:10:19;;;;;;;10.02;6.80;;;31.30;41.00;;;;;;5018565;28;20053;-69
2021/10/19 09:12:59;;;;;;;9.20;6.65;;;31.70;39.90;;;;;;5018761;28;20066;-69
2021/10/19 09:15:30;;;;;;;9.00;6.82;;;31.80;38.80;;;;;;5022070;28;20036;-69
2021/10/19 09:18:04;;;;;;;8.35;6.75;;;32.60;38.30;;;;;;5014590;28;20099;-69
2021/10/19 09:20:34;;;;;;;8.80;7.82;;;33.20;36.90;;;;;;5015891;28;20112;-69
2021/10/19 09:23:01;;;;;;;;;;;34.00;35.50;;;;;;5019139;28;20045;-70
2021/10/19 09:25:30;;;;;;;11.80;9.85;;;33.90;34.20;;;;;;5018344;28;19945;-70
2021/10/19 09:27:56;;;;;;;10.57;9.02;;;33.70;34.20;;;;;;5018364;28;20105;-69
2021/10/19 09:30:36;;;;;;;9.88;8.88;;;33.90;34.10;;;;;;5017806;28;20058;-70
2021/10/19 09:33:06;;;;;;;10.27;9.27;;;34.70;33.70;;;;;;5015233;28;20247;-70
2021/10/19 09:35:32;;;;;;;13.98;12.73;;;35.00;32.50;;;;;;5015449;28;20081;-70
2021/10/19 09:37:59;;;;;;;11.73;9.00;;;34.70;32.50;;;;;;5018335;28;20044;-71
2021/10/19 09:40:30;;;;;;;10.93;9.77;;;34.80;32.40;;;;;;5018240;28;20068;-71
2021/10/19 09:43:01;;;;;;;10.07;8.98;;;34.80;31.70;;;;;;5019170;28;20025;-70
2021/10/19 09:45:27;;;;;;;12.73;10.85;;;34.40;32.20;;;;;;5028168;28;20388;-70
2021/10/19 09:47:56;;;;;;;11.43;10.38;;;33.20;33.50;;;;;;5013936;28;20041;-70
2021/10/19 09:50:24;;;;;;;10.48;8.00;;;30.70;36.20;;;;;;5029347;28;20045;-70
2021/10/19 09:52:54;;;;;;;11.50;7.25;;;29.10;39.50;;;;;;5027098;28;20026;-70
2021/10/19 09:55:22;;;;;;;11.10;7.10;;;28.20;41.00;;;;;;5021573;28;20547;-70
2021/10/19 09:57:50;;;;;;;12.20;7.35;;;28.60;40.80;;;;;;5018017;28;20457;-70
2021/10/19 10:00:16;;;;;;;12.90;7.97;;;31.10;38.70;;;;;;5016274;28;20439;-70
2021/10/19 10:02:44;;;;;;;11.25;7.90;;;33.10;35.00;;;;;;5014447;28;20041;-69
2021/10/19 10:05:11;;;;;;;9.32;7.97;;;34.40;33.10;;;;;;5018139;28;20503;-69
2021/10/19 10:07:44;;;;;;;8.73;7.82;;;35.70;31.40;;;;;;5025642;28;20029;-69
2021/10/19 10:10:12;;;;;;;11.52;7.45;;;36.40;30.00;;;;;;5022466;28;20378;-69
2021/10/19 10:12:44;;;;;;;8.07;7.00;;;37.00;29.20;;;;;;5020143;28;20452;-69
2021/10/19 10:15:25;;;;;;;8.63;7.72;;;37.20;28.60;;;;;;5060542;28;20030;-69
2021/10/19 10:18:01;;;;;;;10.70;6.80;;;37.70;27.70;;;;;;5013172;28;20017;-69
2021/10/19 10:20:35;;;;;;;8.00;6.30;;;37.70;27.60;;;;;;5027773;28;20120;-69
2021/10/19 10:23:13;;;;;;;9.25;6.13;;;38.40;27.20;;;;;;5027992;28;20037;-69
2021/10/19 10:25:38;;;;;;;8.18;5.90;;;38.10;27.00;;;;;;5019657;28;20022;-69
2021/10/19 10:28:17;;;;;;;10.25;6.03;;;38.00;27.00;;;;;;5016910;28;20405;-69
2021/10/19 10:30:46;;;;;;;6.75;5.57;;;38.30;26.80;;;;;;5017467;28;20047;-69
2021/10/19 10:33:12;;;;;;;11.45;6.30;;;39.30;25.70;;;;;;5015199;28;20034;-69
2021/10/19 10:35:47;;;;;;;8.15;5.90;;;39.80;25.30;;;;;;5013908;28;20091;-69
2021/10/19 10:38:14;;;;;;;8.20;5.63;;;40.20;24.90;;;;;;5016993;28;20028;-70
2021/10/19 10:40:44;;;;;;;7.72;5.80;;;40.70;24.20;;;;;;5048582;28;20161;-70
2021/10/19 10:43:28;;;;;;;7.57;5.65;;;41.00;24.40;;;;;;5020773;28;20038;-70
2021/10/19 10:46:01;;;;;;;6.68;5.25;;;41.50;24.70;;;;;;5024403;28;20520;-70
2021/10/19 10:48:28;;;;;;;9.55;5.38;;;42.30;23.10;;;;;;5016314;28;20516;-69
2021/10/19 10:50:54;;;;;;;9.02;5.68;;;42.80;22.80;;;;;;5015701;28;20025;-70
2021/10/19 10:53:20;;;;;;;7.93;5.00;;;42.70;22.50;;;;;;5031550;28;20029;-70
2021/10/19 10:55:49;;;;;;;9.80;5.05;;;42.50;22.70;;;;;;5016621;28;20022;-70
2021/10/19 10:58:35;;;;;;;9.38;4.97;;;42.70;22.80;;;;;;5019147;28;20021;-70
2021/10/19 11:01:14;;;;;;;8.35;4.43;;;43.40;22.00;;;;;;5016401;28;20038;-70
2021/10/19 11:03:42;;;;;;;7.63;4.50;;;42.70;21.90;;;;;;5048423;28;20053;-69
2021/10/19 11:06:12;;;;;;;9.60;4.90;;;43.10;21.90;;;;;;5014802;28;20465;-70
2021/10/19 11:08:38;;;;;;;8.70;5.18;;;43.70;21.60;;;;;;5024318;28;20040;-69
2021/10/19 11:11:17;;;;;;;7.32;4.90;;;43.80;21.10;;;;;;5027191;28;20049;-70
2021/10/19 11:14:03;;;;;;;9.35;5.22;;;43.80;21.00;;;;;;5029342;28;20021;-70
2021/10/19 11:16:35;;;;;;;7.10;4.80;;;43.80;21.00;;;;;;5019013;28;20049;-70
2021/10/19 11:19:28;;;;;;;9.73;5.30;;;43.70;21.70;;;;;;5015996;28;20026;-70
2021/10/19 11:21:56;;;;;;;6.45;4.85;;;43.80;21.10;;;;;;5016204;28;20057;-70
2021/10/19 11:24:24;;;;;;;9.90;4.88;;;44.50;20.60;;;;;;5016101;28;20026;-70
2021/10/19 11:26:51;;;;;;;9.48;5.35;;;44.80;20.40;;;;;;5012120;28;20029;-70
2021/10/19 11:29:18;;;;;;;7.57;4.95;;;44.60;20.40;;;;;;5015568;28;20029;-70
2021/10/19 11:31:45;;;;;;;8.57;5.00;;;45.00;19.90;;;;;;5015896;28;20125;-70
2021/10/19 11:34:10;;;;;;;8.57;4.68;;;45.20;19.90;;;;;;5015713;28;20033;-71
2021/10/19 11:36:37;;;;;;;9.02;4.63;;;45.10;19.80;;;;;;5023902;28;20025;-70
2021/10/19 11:39:13;;;;;;;7.80;4.70;;;45.10;19.80;;;;;;5012933;28;20037;-70
2021/10/19 11:41:56;;;;;;;6.20;4.78;;;44.70;20.20;;;;;;5013309;28;20041;-71
2021/10/19 11:44:28;;;;;;;6.57;4.80;;;45.00;19.90;;;;;;5027337;28;20029;-71
2021/10/19 11:46:54;;;;;;;8.25;5.07;;;45.30;19.90;;;;;;5016442;28;20033;-70
2021/10/19 11:49:21;;;;;;;8.77;4.78;;;45.50;19.80;;;;;;5020245;28;20052;-70
2021/10/19 11:51:51;;;;;;;6.30;4.65;;;45.50;19.70;;;;;;5023361;28;20064;-70
2021/10/19 11:54:19;;;;;;;6.70;4.70;;;46.00;19.60;;;;;;5014951;28;20425;-70
2021/10/19 11:56:58;;;;;;;8.30;4.60;;;46.20;19.20;;;;;;5025174;28;20079;-70
2021/10/19 11:59:24;;;;;;;8.90;4.80;;;46.10;19.10;;;;;;5026699;28;20117;-70
2021/10/19 12:01:54;;;;;;;7.00;4.80;;;45.90;19.30;;;;;;5016017;28;20045;-70
2021/10/19 12:04:26;;;;;;;7.40;4.55;;;45.90;19.20;;;;;;5015481;28;20022;-70
2021/10/19 12:06:53;;;;;;;11.00;4.95;;;45.90;19.30;;;;;;5015800;28;20109;-70
2021/10/19 12:09:26;;;;;;;6.78;4.20;;;46.20;19.00;;;;;;5017137;28;20029;-70
2021/10/19 12:11:54;;;;;;;5.95;4.43;;;46.00;19.30;;;;;;5011177;28;20056;-70
2021/10/19 12:14:29;;;;;;;7.30;4.50;;;45.50;19.30;;;;;;5027087;28;20092;-70
2021/10/19 12:16:56;;;;;;;8.63;4.05;;;45.70;19.20;;;;;;5024727;28;20041;-70
2021/10/19 12:19:22;;;;;;;6.60;3.92;;;45.70;19.10;;;;;;5018562;28;20018;-70
2021/10/19 12:21:54;;;;;;;7.32;4.30;;;45.40;19.40;;;;;;5015253;28;20040;-70
2021/10/19 12:24:21;;;;;;;7.43;4.35;;;45.30;19.30;;;;;;5014889;28;20100;-70
2021/10/19 12:26:47;;;;;;;8.57;3.90;;;45.30;19.60;;;;;;5023895;28;20409;-70
2021/10/19 12:29:13;;;;;;;6.82;4.40;;;44.60;19.90;;;;;;5015111;28;20494;-70
2021/10/19 12:31:45;;;;;;;8.85;4.75;;;44.10;20.30;;;;;;5015029;28;20038;-70
2021/10/19 12:34:11;;;;;;;7.50;4.28;;;44.30;20.30;;;;;;5014871;28;20270;-70
2021/10/19 12:36:39;;;;;;;8.38;4.20;;;44.60;20.20;;;;;;5015371;28;20037;-70
2021/10/19 12:39:15;;;;;;;6.13;3.95;;;44.90;20.00;;;;;;5012288;28;20022;-70
2021/10/19 12:41:43;;;;;;;7.47;4.20;;;44.60;19.80;;;;;;5015490;28;20496;-70
2021/10/19 12:44:16;;;;;;;7.32;4.10;;;43.70;20.90;;;;;;5019071;28;20033;-69
2021/10/19 12:46:43;;;;;;;7.38;4.10;;;43.60;21.20;;;;;;5019459;28;20035;-70
2021/10/19 12:49:09;;;;;;;9.13;4.30;;;43.80;21.30;;;;;;5018348;28;20097;-70
2021/10/19 12:51:36;;;;;;;7.00;3.97;;;44.50;20.90;;;;;;5026355;28;20044;-70
2021/10/19 12:54:04;;;;;;;7.53;4.00;;;45.20;20.50;;;;;;5015569;28;20030;-70
2021/10/19 12:56:32;;;;;;;8.02;4.07;;;45.50;19.60;;;;;;5032914;28;20400;-70
2021/10/19 12:58:58;;;;;;;8.63;4.13;;;45.70;19.70;;;;;;5028582;28;20029;-70
2021/10/19 13:01:25;;;;;;;7.72;4.20;;;45.60;19.40;;;;;;5021924;28;20022;-70
2021/10/19 13:03:51;;;;;;;7.80;4.15;;;45.40;19.40;;;;;;5018436;28;20043;-70
2021/10/19 13:06:18;;;;;;;8.38;3.95;;;45.20;19.50;;;;;;5020587;28;20040;-70
2021/10/19 13:08:45;;;;;;;6.70;4.32;;;45.50;19.40;;;;;;5031276;28;20058;-70
2021/10/19 13:11:11;;;;;;;6.30;3.97;;;45.60;19.30;;;;;;5018631;28;20042;-70
2021/10/19 13:13:37;;;;;;;8.30;4.15;;;45.60;19.60;;;;;;5018161;28;20485;-70
2021/10/19 13:16:04;;;;;;;8.95;4.53;;;45.80;19.20;;;;;;5018747;28;20030;-70
2021/10/19 13:18:30;;;;;;;13.10;4.88;;;45.80;19.00;;;;;;5018415;28;20092;-70
2021/10/19 13:20:56;;;;;;;6.35;4.40;;;45.50;18.80;;;;;;5014373;28;20133;-70
2021/10/19 13:23:23;;;;;;;9.13;4.57;;;45.20;19.10;;;;;;5018144;28;20223;-70
2021/10/19 13:25:50;;;;;;;9.57;4.18;;;44.70;20.00;;;;;;5028630;28;20159;-69
2021/10/19 13:28:19;;;;;;;9.27;4.80;;;43.30;21.10;;;;;;5022200;28;20022;-69
2021/10/19 13:30:46;;;;;;;8.52;5.00;;;40.80;22.10;;;;;;5050564;28;20041;-70
2021/10/19 13:33:13;;;;;;;7.90;5.05;;;39.00;24.10;;;;;;5029412;28;20054;-69
2021/10/19 13:35:39;;;;;;;9.07;5.20;;;37.70;25.40;;;;;;5015463;28;20030;-70
2021/10/19 13:38:05;;;;;;;9.13;5.55;;;36.80;26.60;;;;;;5017840;28;20029;-70
2021/10/19 13:40:31;;;;;;;8.70;5.45;;;36.10;27.20;;;;;;5017972;28;20030;-69
2021/10/19 13:42:57;;;;;;;8.68;5.95;;;35.60;27.90;;;;;;5017707;28;20032;-69
2021/10/19 13:45:23;;;;;;;8.50;6.68;;;35.30;27.20;;;;;;5028640;28;20029;-69
2021/10/19 13:47:49;;;;;;;13.35;6.90;;;34.90;26.90;;;;;;5023093;28;20405;-70
2021/10/19 13:50:15;;;;;;;12.38;7.35;;;34.70;27.40;;;;;;5017517;28;20432;-69
2021/10/19 13:52:40;;;;;;;13.25;7.32;;;34.90;26.90;;;;;;5017330;28;20553;-70
2021/10/19 13:55:10;;;;;;;13.45;7.78;;;35.70;26.20;;;;;;5021639;28;20435;-70
2021/10/19 13:57:37;;;;;;;10.15;8.05;;;37.40;24.50;;;;;;5027591;28;20040;-70
2021/10/19 14:00:14;;;;;;;10.70;7.45;;;38.50;23.40;;;;;;5014730;28;20042;-70
2021/10/19 14:02:41;;;;;;;10.13;7.68;;;39.10;22.50;;;;;;5014939;28;20030;-70
2021/10/19 14:05:07;;;;;;;11.18;7.65;;;39.50;21.90;;;;;;5030771;28;20036;-70
2021/10/19 14:07:33;;;;;;;10.18;7.53;;;39.60;21.50;;;;;;5019423;28;20037;-70
2021/10/19 14:09:59;;;;;;;13.70;7.78;;;39.50;21.90;;;;;;5017409;28;20452;-70
2021/10/19 14:12:25;;;;;;;11.55;8.73;;;39.60;21.70;;;;;;5017103;28;20500;-70
2021/10/19 14:14:51;;;;;;;11.98;8.38;;;39.50;20.80;;;;;;5013559;28;20094;-70
2021/10/19 14:17:18;;;;;;;13.75;9.02;;;39.20;21.00;;;;;;5017361;28;20034;-70
2021/10/19 14:19:48;;;;;;;15.40;8.77;;;39.10;21.80;;;;;;5023379;28;20076;-70
2021/10/19 14:22:18;;;;;;;13.52;8.45;;;39.20;20.80;;;;;;5021904;28;20543;-70
2021/10/19 14:24:46;;;;;;;12.27;9.43;;;39.00;20.90;;;;;;5017850;28;20112;-70
2021/10/19 14:27:12;;;;;;;11.75;8.60;;;38.90;21.10;;;;;;5029134;28;20018;-69
2021/10/19 14:29:38;;;;;;;13.15;8.88;;;38.90;21.60;;;;;;5012998;28;20034;-69
2021/10/19 14:32:05;;;;;;;13.75;9.10;;;38.90;21.00;;;;;;5017593;28;20548;-70
2021/10/19 14:34:30;;;;;;;12.32;9.38;;;38.70;21.30;;;;;;5018301;28;20084;-69
2021/10/19 14:36:56;;;;;;;13.45;9.40;;;38.10;21.30;;;;;;5017112;28;20022;-69
2021/10/19 14:39:22;;;;;;;17.10;9.48;;;37.10;21.70;;;;;;5016788;28;20034;-69
2021/10/19 14:41:52;;;;;;;12.90;9.45;;;36.50;22.80;;;;;;5014359;28;20034;-69
2021/10/19 14:44:18;;;;;;;;;;;36.00;23.10;;;;;;5033240;28;20029;-69
2021/10/19 14:46:46;;;;;;;13.65;9.60;;;35.50;23.70;;;;;;5027554;28;19909;-69
2021/10/19 14:49:14;;;;;;;13.68;10.00;;;35.10;24.10;;;;;;5021186;28;20397;-69
2021/10/19 14:51:40;;;;;;;13.20;9.57;;;34.60;24.30;;;;;;5016555;28;20033;-69
2021/10/19 14:54:09;;;;;;;13.32;10.18;;;33.90;24.90;;;;;;5026775;28;20040;-69
2021/10/19 14:56:36;;;;;;;16.42;10.18;;;33.20;25.30;;;;;;5014469;28;20026;-69
2021/10/19 14:59:02;;;;;;;13.70;9.82;;;33.00;26.00;;;;;;5016449;28;20378;-69
2021/10/19 15:01:28;;;;;;;17.10;10.73;;;32.90;26.30;;;;;;5027071;28;20036;-68
2021/10/19 15:03:53;;;;;;;13.23;9.90;;;33.00;27.00;;;;;;5023533;28;20034;-69
2021/10/19 15:06:20;;;;;;;13.02;10.00;;;33.40;26.50;;;;;;5015355;28;20488;-69
2021/10/19 15:08:46;;;;;;;15.55;10.43;;;33.70;26.40;;;;;;5012879;28;20022;-69
2021/10/19 15:11:12;;;;;;;21.25;10.55;;;33.60;25.80;;;;;;5016554;28;20552;-69
2021/10/19 15:13:37;;;;;;;15.02;9.85;;;33.30;25.70;;;;;;5016502;28;20029;-69
2021/10/19 15:16:04;;;;;;;17.35;10.07;;;33.00;26.70;;;;;;5016310;28;20018;-69
2021/10/19 15:18:30;;;;;;;17.48;10.45;;;32.40;27.10;;;;;;5017417;28;20034;-69
2021/10/19 15:20:57;;;;;;;13.35;10.32;;;31.70;27.50;;;;;;5011720;28;20563;-68
2021/10/19 15:23:23;;;;;;;14.45;10.25;;;31.00;28.60;;;;;;5027754;28;20033;-68
2021/10/19 15:25:49;;;;;;;15.95;10.80;;;30.40;29.10;;;;;;5016084;28;20625;-67
2021/10/19 15:28:15;;;;;;;14.70;10.13;;;29.90;29.80;;;;;;5016427;28;20040;-67
2021/10/19 15:30:41;;;;;;;17.13;10.43;;;29.50;30.20;;;;;;5015544;28;20064;-67
2021/10/19 15:33:07;;;;;;;18.10;10.73;;;29.10;31.10;;;;;;5027253;28;20026;-67
2021/10/19 15:35:33;;;;;;;14.52;10.48;;;28.70;31.70;;;;;;5013807;28;20096;-67
2021/10/19 15:37:59;;;;;;;24.90;17.70;;;28.40;32.60;;;;;;5016343;28;20148;-67
2021/10/19 15:40:25;;;;;;;19.83;11.38;;;28.20;33.10;;;;;;5024490;28;20022;-67
2021/10/19 15:42:51;;;;;;;17.88;10.60;;;28.00;33.20;;;;;;5023501;28;20037;-69
2021/10/19 15:45:17;;;;;;;21.48;10.80;;;27.70;33.70;;;;;;5014383;28;20053;-69
2021/10/19 15:47:43;;;;;;;16.88;10.55;;;27.50;34.40;;;;;;5019850;28;20069;-67
2021/10/19 15:50:09;;;;;;;19.05;10.63;;;27.30;34.90;;;;;;5028853;28;20072;-67
2021/10/19 15:52:38;;;;;;;19.23;10.85;;;27.10;35.40;;;;;;5017032;28;20022;-67
2021/10/19 15:55:08;;;;;;;18.67;10.40;;;26.90;36.00;;;;;;5021855;28;20025;-67
2021/10/19 15:57:34;;;;;;;16.10;10.45;;;26.70;36.40;;;;;;5012194;28;20033;-68
2021/10/19 16:00:00;;;;;;;16.10;10.48;;;26.60;37.50;;;;;;5026001;28;20064;-68
2021/10/19 16:02:25;;;;;;;16.08;10.88;;;26.50;38.20;;;;;;5013944;28;20049;-68
2021/10/19 16:04:51;;;;;;;14.48;10.30;;;26.40;38.40;;;;;;5024394;28;20075;-68
2021/10/19 16:07:19;;;;;;;14.98;9.88;;;26.40;38.60;;;;;;5019975;28;20022;-68
2021/10/19 16:09:48;;;;;;;15.23;10.30;;;26.30;38.60;;;;;;5046620;28;20036;-68
2021/10/19 16:12:14;;;;;;;14.88;10.05;;;26.30;38.90;;;;;;5013338;28;20037;-67
2021/10/19 16:14:40;;;;;;;17.55;10.65;;;26.20;38.80;;;;;;5013200;28;20025;-68
2021/10/19 16:17:06;;;;;;;15.90;10.02;;;26.10;40.00;;;;;;5027863;28;20032;-67
2021/10/19 16:19:31;;;;;;;15.23;10.52;;;26.10;39.40;;;;;;5017391;28;20044;-67
2021/10/19 16:21:57;;;;;;;15.38;10.30;;;25.90;39.70;;;;;;5016352;28;20022;-67
2021/10/19 16:24:23;;;;;;;17.98;11.20;;;25.80;40.50;;;;;;5015022;28;20481;-67
2021/10/19 16:26:49;;;;;;;20.85;11.43;;;25.60;40.70;;;;;;5011149;28;20182;-68
2021/10/19 16:29:15;;;;;;;16.90;10.65;;;25.50;41.30;;;;;;5029487;28;20045;-67
2021/10/19 16:31:42;;;;;;;16.45;10.38;;;25.30;41.90;;;;;;5016036;28;20038;-67
2021/10/19 16:34:08;;;;;;;15.55;9.85;;;25.10;42.30;;;;;;5015430;28;20071;-68
2021/10/19 16:36:36;;;;;;;17.60;11.60;;;25.00;43.30;;;;;;5016492;28;20632;-67
2021/10/19 16:39:03;;;;;;;19.92;11.20;;;24.90;43.70;;;;;;5025770;28;20120;-67
2021/10/19 16:41:29;;;;;;;17.63;11.02;;;24.70;44.00;;;;;;5028024;28;20030;-67
2021/10/19 16:43:55;;;;;;;14.90;9.68;;;24.60;44.60;;;;;;5026080;28;20147;-68
2021/10/19 16:46:22;;;;;;;21.67;10.95;;;24.50;45.10;;;;;;5029296;28;20095;-68
2021/10/19 16:48:49;;;;;;;17.42;10.93;;;24.30;45.60;;;;;;5022949;28;20034;-69
2021/10/19 16:51:15;;;;;;;17.35;10.65;;;24.10;46.20;;;;;;5053431;28;20049;-67
2021/10/19 16:53:42;;;;;;;15.70;10.70;;;23.90;46.90;;;;;;5027942;28;20095;-67
2021/10/19 16:56:10;;;;;;;16.42;11.07;;;23.70;47.60;;;;;;5028250;28;20028;-68
2021/10/19 16:58:36;;;;;;;14.88;10.65;;;23.60;48.10;;;;;;5026746;28;20025;-68